Enterline, Pennsylvania
Current Conditions -  °F | °C
As of 2:58 AM on Thursday 27 Nov 2014 (Local Time) from KMUI Reporting Station
Overcast Overcast  
Wind Chill: 27°   Ceiling: 5500
Heat Index: 34°   Visibility: 10mi
Dew Point: 28°   Wind: 8mph
Humidity: 80%   Direction: 340°NNW
Pressure: 29.97"   Gusts: 17mph
Location:  40.4949°N, 76.8115°W
Report Text: KMUI 270758Z AUTO 34007G15KT 300V010 10SM SCT046 BKN055 OVC070 01/M02 A2997 RMK AO2 SLP156 T00091022 $
Loading
Personal Weather Stations






























Interactive Weather Map New forecast layout! Learn more

10-Day Weather Forecast

Advertisements
Track Severe Weather on mobile